Time;durP1;ratioP1;P1;durP2;ratioP2;P2;SDS_P1;SDS_P2;PMS_P1;PMS_P2;Temp;Humidity;BMP_temperature;BMP_pressure;BME280_temperature;BME280_humidity;BME280_pressure;Samples;Min_cycle;Max_cycle;Signal;HPM_P1;HPM_P2
2023/07/07 00:00:03;;;;;;;5.75;1.88;;;14.50;99.90;;;;;;4995686;28;20444;-77
2023/07/07 00:02:32;;;;;;;5.30;1.63;;;14.50;99.90;;;;;;4995768;28;20112;-81
2023/07/07 00:05:01;;;;;;;6.97;1.95;;;14.40;99.90;;;;;;5010549;28;20052;-80
2023/07/07 00:07:28;;;;;;;4.93;1.67;;;14.40;99.90;;;;;;4976348;28;20043;-80
2023/07/07 00:09:55;;;;;;;6.45;1.77;;;14.40;99.90;;;;;;4976020;28;20089;-79
2023/07/07 00:12:21;;;;;;;7.03;2.10;;;14.30;99.90;;;;;;4975421;28;20058;-80
2023/07/07 00:14:49;;;;;;;5.30;1.80;;;14.30;99.90;;;;;;4969170;28;20450;-80
2023/07/07 00:17:16;;;;;;;5.95;1.90;;;14.30;99.90;;;;;;4976322;28;20058;-79
2023/07/07 00:19:43;;;;;;;5.38;2.00;;;14.30;99.90;;;;;;4958528;28;20074;-78
2023/07/07 00:22:09;;;;;;;5.25;1.83;;;14.20;99.90;;;;;;4991798;28;20389;-79
2023/07/07 00:24:36;;;;;;;5.95;1.90;;;14.20;99.90;;;;;;4994684;28;20129;-77
2023/07/07 00:27:04;;;;;;;5.93;2.08;;;14.20;99.90;;;;;;4995442;28;20457;-79
2023/07/07 00:29:32;;;;;;;8.90;2.00;;;14.10;99.90;;;;;;4978329;28;20052;-79
2023/07/07 00:32:00;;;;;;;7.35;1.98;;;14.10;99.90;;;;;;4977530;28;20046;-79
2023/07/07 00:34:27;;;;;;;5.47;1.95;;;14.10;99.90;;;;;;4995085;28;20137;-80
2023/07/07 00:36:54;;;;;;;6.00;1.98;;;14.10;99.90;;;;;;4994908;28;20097;-78
2023/07/07 00:39:20;;;;;;;7.43;1.98;;;14.10;99.90;;;;;;4995024;28;20053;-78
2023/07/07 00:41:48;;;;;;;5.78;2.08;;;14.00;99.90;;;;;;4995095;28;20046;-80
2023/07/07 00:44:14;;;;;;;6.85;2.22;;;14.00;99.90;;;;;;4994143;28;20043;-79
2023/07/07 00:49:13;;;;;;;6.25;1.80;;;14.00;99.90;;;;;;4994810;28;20141;-79
2023/07/07 00:51:41;;;;;;;7.43;1.92;;;14.00;99.90;;;;;;4993723;28;20062;-79
2023/07/07 00:54:07;;;;;;;5.72;1.88;;;13.90;99.90;;;;;;4995621;28;20470;-78
2023/07/07 00:56:35;;;;;;;8.30;2.30;;;13.90;99.90;;;;;;4995429;28;20042;-80
2023/07/07 00:59:02;;;;;;;8.25;2.10;;;13.90;99.90;;;;;;4993566;28;20050;-78
2023/07/07 01:01:29;;;;;;;6.90;1.80;;;13.90;99.90;;;;;;4994173;28;20117;-79
2023/07/07 01:03:56;;;;;;;7.28;2.08;;;13.80;99.90;;;;;;4994849;28;20042;-79
2023/07/07 01:06:24;;;;;;;4.88;1.80;;;13.80;99.90;;;;;;4982777;28;20035;-78
2023/07/07 01:08:51;;;;;;;6.88;1.77;;;13.80;99.90;;;;;;4975790;28;20126;-79
2023/07/07 01:11:18;;;;;;;6.25;1.77;;;13.80;99.90;;;;;;4962165;28;20206;-79
2023/07/07 01:13:45;;;;;;;6.75;1.83;;;13.80;99.90;;;;;;4975828;28;20082;-78
2023/07/07 01:16:12;;;;;;;6.03;1.95;;;13.80;99.90;;;;;;4975936;28;20061;-79
2023/07/07 01:18:38;;;;;;;7.20;2.10;;;13.80;99.90;;;;;;4976899;28;20077;-78
2023/07/07 01:21:05;;;;;;;7.47;2.03;;;13.70;99.90;;;;;;4994574;28;20129;-77
2023/07/07 01:23:32;;;;;;;4.95;1.63;;;13.70;99.90;;;;;;4978659;28;20493;-79
2023/07/07 01:26:00;;;;;;;7.57;1.90;;;13.70;99.90;;;;;;4978700;28;20034;-78
2023/07/07 01:28:31;;;;;;;6.22;2.20;;;13.60;99.90;;;;;;4979293;28;20043;-78
2023/07/07 01:30:58;;;;;;;7.00;2.20;;;13.60;99.90;;;;;;4978523;28;20336;-79
2023/07/07 01:33:25;;;;;;;7.22;1.92;;;13.60;99.90;;;;;;4979627;28;20054;-77
2023/07/07 01:35:53;;;;;;;6.93;2.00;;;13.50;99.90;;;;;;4979084;28;20109;-80
2023/07/07 01:38:20;;;;;;;5.18;2.10;;;13.50;99.90;;;;;;4978372;28;20043;-78
2023/07/07 01:40:46;;;;;;;7.88;2.30;;;13.50;99.90;;;;;;4978904;28;20501;-79
2023/07/07 01:43:13;;;;;;;11.18;2.30;;;13.50;99.90;;;;;;4994544;28;20038;-78
2023/07/07 01:45:40;;;;;;;5.93;2.17;;;13.40;99.90;;;;;;4978469;28;20398;-79
2023/07/07 01:48:06;;;;;;;5.05;1.73;;;13.40;99.90;;;;;;4994199;28;20075;-78
2023/07/07 01:50:33;;;;;;;8.35;2.58;;;13.30;99.90;;;;;;4978924;28;20043;-78
2023/07/07 01:53:00;;;;;;;8.60;2.67;;;13.30;99.90;;;;;;4993187;28;20042;-78
2023/07/07 01:55:28;;;;;;;4.82;1.90;;;13.30;99.90;;;;;;4994104;28;20051;-79
2023/07/07 01:57:55;;;;;;;9.38;2.22;;;13.30;99.90;;;;;;4978190;28;20426;-78
2023/07/07 02:00:21;;;;;;;5.97;2.00;;;13.30;99.90;;;;;;4993796;28;20047;-78
2023/07/07 02:02:48;;;;;;;8.65;2.20;;;13.30;99.90;;;;;;4978823;28;20078;-77
2023/07/07 02:05:15;;;;;;;6.18;2.10;;;13.30;99.90;;;;;;4996443;28;20529;-80
2023/07/07 02:07:42;;;;;;;5.82;2.00;;;13.20;99.90;;;;;;5013444;28;20488;-77
2023/07/07 02:10:09;;;;;;;5.25;1.85;;;13.20;99.90;;;;;;5017316;28;20045;-78
2023/07/07 02:12:36;;;;;;;6.13;2.05;;;13.20;99.90;;;;;;5032450;28;20069;-78
2023/07/07 02:15:03;;;;;;;5.18;1.58;;;13.20;99.90;;;;;;5005087;28;20054;-79
2023/07/07 02:17:30;;;;;;;7.47;2.10;;;13.20;99.90;;;;;;4996996;28;20042;-79
2023/07/07 02:19:57;;;;;;;7.53;2.10;;;13.20;99.90;;;;;;4996198;28;20054;-77
2023/07/07 02:22:23;;;;;;;5.88;1.95;;;13.20;99.90;;;;;;4998023;28;20070;-78
2023/07/07 02:24:50;;;;;;;7.28;1.88;;;13.20;99.90;;;;;;4995943;28;20042;-78
2023/07/07 02:27:17;;;;;;;5.65;2.03;;;13.30;99.90;;;;;;4997134;28;20042;-78
2023/07/07 02:29:44;;;;;;;7.97;2.05;;;13.30;99.90;;;;;;4996716;28;20042;-78
2023/07/07 02:32:11;;;;;;;5.35;1.90;;;13.30;99.90;;;;;;4997075;28;20073;-79
2023/07/07 02:34:38;;;;;;;9.45;2.50;;;13.30;99.90;;;;;;4997627;28;20061;-80
2023/07/07 02:37:12;;;;;;;10.23;2.17;;;13.30;99.90;;;;;;4996745;28;20061;-80
2023/07/07 02:39:39;;;;;;;6.03;1.88;;;13.30;99.90;;;;;;5012191;28;20092;-79
2023/07/07 02:42:06;;;;;;;9.13;2.22;;;13.30;99.90;;;;;;4997940;28;20121;-78
2023/07/07 02:44:33;;;;;;;8.40;2.10;;;13.30;99.90;;;;;;4996833;28;20540;-77
2023/07/07 02:47:03;;;;;;;6.28;1.88;;;13.40;99.90;;;;;;4997501;28;20042;-80
2023/07/07 02:49:30;;;;;;;7.82;2.30;;;13.30;99.90;;;;;;5012481;28;20118;-78
2023/07/07 02:51:57;;;;;;;7.15;1.80;;;13.30;99.90;;;;;;4988189;28;20532;-77
2023/07/07 02:54:24;;;;;;;9.30;2.05;;;13.30;99.90;;;;;;4978002;28;20097;-77
2023/07/07 02:56:51;;;;;;;8.25;2.45;;;13.30;99.90;;;;;;4992977;28;20050;-77
2023/07/07 02:59:18;;;;;;;5.50;1.63;;;13.30;99.90;;;;;;4992177;28;20058;-80
2023/07/07 03:01:45;;;;;;;4.90;1.83;;;13.30;99.90;;;;;;4992832;28;20047;-79
2023/07/07 03:04:12;;;;;;;9.65;1.98;;;13.30;99.90;;;;;;4992758;28;20047;-78
2023/07/07 03:06:41;;;;;;;6.32;2.05;;;13.20;99.90;;;;;;4991865;28;20064;-78
2023/07/07 03:09:08;;;;;;;8.85;2.40;;;13.20;99.90;;;;;;4976803;28;20366;-78
2023/07/07 03:11:37;;;;;;;5.13;1.85;;;13.20;99.90;;;;;;4991529;28;20473;-79
2023/07/07 03:14:05;;;;;;;5.22;1.80;;;13.20;99.90;;;;;;4976551;28;20481;-78
2023/07/07 03:16:46;;;;;;;5.93;1.80;;;13.20;99.90;;;;;;4992920;28;20057;-79
2023/07/07 03:19:16;;;;;;;7.32;1.80;;;13.10;99.90;;;;;;4960095;28;20050;-78
2023/07/07 03:21:49;;;;;;;7.50;2.10;;;13.10;99.90;;;;;;4992310;28;20055;-79
2023/07/07 03:24:26;;;;;;;5.55;1.70;;;13.10;99.90;;;;;;4992028;28;20146;-80
2023/07/07 03:26:54;;;;;;;5.82;1.70;;;13.10;99.90;;;;;;4961140;28;20081;-80
2023/07/07 03:29:25;;;;;;;5.43;2.03;;;13.10;99.90;;;;;;4992542;28;20038;-78
2023/07/07 03:31:53;;;;;;;5.28;1.80;;;13.10;99.90;;;;;;4975608;28;20042;-78
2023/07/07 03:34:25;;;;;;;5.72;1.67;;;13.00;99.90;;;;;;4993143;28;20064;-79
2023/07/07 03:36:54;;;;;;;6.63;1.80;;;13.00;99.90;;;;;;4992848;28;20050;-78
2023/07/07 03:39:21;;;;;;;5.45;1.70;;;13.00;99.90;;;;;;4976599;28;20046;-79
2023/07/07 03:41:48;;;;;;;5.30;1.77;;;13.00;99.90;;;;;;4990919;28;20046;-77
2023/07/07 03:44:15;;;;;;;7.55;2.00;;;12.90;99.90;;;;;;4976951;28;20103;-78
2023/07/07 03:46:42;;;;;;;7.03;2.25;;;12.90;99.90;;;;;;4991820;28;20271;-78
2023/07/07 03:49:10;;;;;;;6.03;1.92;;;12.90;99.90;;;;;;4992668;28;20039;-79
2023/07/07 03:51:39;;;;;;;6.93;2.05;;;12.90;99.90;;;;;;4991461;28;20047;-79
2023/07/07 03:54:08;;;;;;;4.78;1.73;;;13.00;99.90;;;;;;4960012;28;20050;-79
2023/07/07 03:56:38;;;;;;;4.93;1.80;;;12.90;99.90;;;;;;4992158;28;20143;-78
2023/07/07 03:59:05;;;;;;;4.90;1.63;;;13.00;99.90;;;;;;4974851;28;20086;-79
2023/07/07 04:01:32;;;;;;;4.82;1.90;;;12.90;99.90;;;;;;4992187;28;20404;-78
2023/07/07 04:03:59;;;;;;;7.32;1.83;;;12.90;99.90;;;;;;4991941;28;20035;-78
2023/07/07 04:06:27;;;;;;;5.03;1.80;;;12.90;99.90;;;;;;5002042;28;20092;-79
2023/07/07 04:08:55;;;;;;;4.65;1.75;;;12.80;99.90;;;;;;5011548;28;20468;-78
2023/07/07 04:11:23;;;;;;;5.60;2.22;;;12.70;99.90;;;;;;4993622;28;20393;-78
2023/07/07 04:13:51;;;;;;;4.43;1.70;;;12.80;99.90;;;;;;5011611;28;20334;-77
2023/07/07 04:18:50;;;;;;;7.63;2.00;;;12.70;99.90;;;;;;4994624;28;20089;-77
2023/07/07 04:21:18;;;;;;;5.72;1.70;;;12.70;99.90;;;;;;4995382;28;20427;-76
2023/07/07 04:23:45;;;;;;;4.50;1.65;;;12.70;99.90;;;;;;4995517;28;20377;-78
2023/07/07 04:26:12;;;;;;;6.20;2.10;;;12.70;99.90;;;;;;5010572;28;20038;-77
2023/07/07 04:28:38;;;;;;;8.27;1.73;;;12.70;99.90;;;;;;4995657;28;20417;-79
2023/07/07 04:31:05;;;;;;;5.47;1.77;;;12.70;99.90;;;;;;4994424;28;20042;-81
2023/07/07 04:33:32;;;;;;;5.47;2.00;;;12.80;99.90;;;;;;5011054;28;20038;-77
2023/07/07 04:35:58;;;;;;;9.35;1.77;;;12.80;99.90;;;;;;5010968;28;20096;-81
2023/07/07 04:38:30;;;;;;;6.60;1.85;;;12.80;99.90;;;;;;4994747;28;20397;-79
2023/07/07 04:40:57;;;;;;;6.40;1.90;;;12.80;99.90;;;;;;4995200;28;20038;-80
2023/07/07 04:43:25;;;;;;;7.03;1.58;;;12.80;99.90;;;;;;4995428;28;20413;-81
2023/07/07 04:45:52;;;;;;;7.55;2.13;;;12.90;99.90;;;;;;4994603;28;20065;-79
2023/07/07 04:48:19;;;;;;;5.80;2.00;;;12.90;99.90;;;;;;5010853;28;20034;-80
2023/07/07 04:50:45;;;;;;;5.93;1.98;;;13.00;99.90;;;;;;4995321;28;20042;-78
2023/07/07 04:53:12;;;;;;;6.75;2.10;;;13.00;99.90;;;;;;5012826;28;20354;-80
2023/07/07 04:55:40;;;;;;;6.78;2.20;;;13.10;99.90;;;;;;4999897;28;20061;-79
2023/07/07 04:58:07;;;;;;;5.57;1.90;;;13.20;99.90;;;;;;4999052;28;20066;-77
2023/07/07 05:00:33;;;;;;;7.57;2.03;;;13.40;99.90;;;;;;4999219;28;20074;-78
2023/07/07 05:03:00;;;;;;;6.80;2.22;;;13.50;99.90;;;;;;4999737;28;20402;-78
2023/07/07 05:05:27;;;;;;;7.40;2.25;;;13.60;99.90;;;;;;4998441;28;20034;-79
2023/07/07 05:07:53;;;;;;;6.65;2.15;;;13.70;99.90;;;;;;4999625;28;20481;-80
2023/07/07 05:10:20;;;;;;;7.00;2.38;;;13.70;99.90;;;;;;4997945;28;20444;-80
2023/07/07 05:12:47;;;;;;;8.45;2.13;;;13.70;99.90;;;;;;4998044;28;20073;-80
2023/07/07 05:15:14;;;;;;;6.80;2.15;;;13.80;99.90;;;;;;4999122;28;20089;-80
2023/07/07 05:17:41;;;;;;;6.68;2.53;;;13.90;99.90;;;;;;4998162;28;20373;-80
2023/07/07 05:20:08;;;;;;;8.00;2.17;;;14.10;99.90;;;;;;4998722;28;20061;-80
2023/07/07 05:22:34;;;;;;;6.55;2.47;;;14.20;99.90;;;;;;4999378;28;20050;-79
2023/07/07 05:25:03;;;;;;;5.78;2.08;;;14.30;99.90;;;;;;4997982;28;20385;-80
2023/07/07 05:27:30;;;;;;;5.82;2.20;;;14.40;99.90;;;;;;4999544;28;20069;-80
2023/07/07 05:29:57;;;;;;;5.50;2.00;;;14.60;99.90;;;;;;4998662;28;20038;-79
2023/07/07 05:32:23;;;;;;;6.20;2.30;;;14.80;99.90;;;;;;4998053;28;20125;-80
2023/07/07 05:37:36;;;;;;;7.10;2.03;;;15.10;99.90;;;;;;4999356;28;20050;-80
2023/07/07 05:40:02;;;;;;;7.45;2.22;;;15.20;99.90;;;;;;4998461;28;20442;-80
2023/07/07 05:42:29;;;;;;;6.40;2.10;;;15.30;99.90;;;;;;4998564;28;20046;-80
2023/07/07 05:44:56;;;;;;;6.07;2.08;;;15.50;99.90;;;;;;4997489;28;20121;-80
2023/07/07 05:47:23;;;;;;;6.13;2.10;;;15.60;99.90;;;;;;4998562;28;20065;-79
2023/07/07 05:49:49;;;;;;;8.35;2.28;;;15.70;99.90;;;;;;4998474;28;20038;-80
2023/07/07 05:52:16;;;;;;;7.95;2.03;;;15.80;99.90;;;;;;4996966;28;20105;-80
2023/07/07 05:54:43;;;;;;;7.05;2.05;;;15.90;99.90;;;;;;4997642;28;20518;-79
2023/07/07 05:57:09;;;;;;;8.32;2.20;;;16.10;99.90;;;;;;4998472;28;20441;-79
2023/07/07 05:59:36;;;;;;;7.88;2.30;;;16.20;99.90;;;;;;4997081;28;20050;-79
2023/07/07 06:02:03;;;;;;;6.30;2.10;;;16.20;99.90;;;;;;4998521;28;20046;-80
2023/07/07 06:04:29;;;;;;;6.88;2.00;;;16.30;99.90;;;;;;4996559;28;20125;-81
2023/07/07 06:06:56;;;;;;;6.63;2.08;;;16.50;99.90;;;;;;4985008;28;20046;-79
2023/07/07 06:09:23;;;;;;;6.22;2.13;;;16.60;99.90;;;;;;4978708;28;20071;-81
2023/07/07 06:11:50;;;;;;;7.65;2.25;;;16.70;99.90;;;;;;4960689;28;20119;-81
2023/07/07 06:14:16;;;;;;;6.45;2.20;;;16.90;99.90;;;;;;4978844;28;20042;-80
2023/07/07 06:16:43;;;;;;;5.88;2.28;;;17.00;99.90;;;;;;4978934;28;20070;-80
2023/07/07 06:19:10;;;;;;;5.40;2.20;;;17.20;99.90;;;;;;4960674;28;20058;-80
2023/07/07 06:21:37;;;;;;;8.27;2.25;;;17.30;99.90;;;;;;4962280;28;20038;-80
2023/07/07 06:24:03;;;;;;;5.28;1.75;;;17.50;99.90;;;;;;4978439;28;20121;-80
2023/07/07 06:26:31;;;;;;;5.55;2.25;;;17.60;99.90;;;;;;4960654;28;20051;-81
2023/07/07 06:28:58;;;;;;;8.10;2.10;;;17.80;99.90;;;;;;4978743;28;20130;-79
2023/07/07 06:31:24;;;;;;;8.07;2.30;;;17.90;99.90;;;;;;4977460;28;20606;-81
2023/07/07 06:33:51;;;;;;;7.97;2.45;;;18.00;99.90;;;;;;4978858;28;20324;-81
2023/07/07 06:36:18;;;;;;;6.53;2.20;;;18.20;99.90;;;;;;4978085;28;20374;-81
2023/07/07 06:38:45;;;;;;;6.50;2.35;;;18.30;99.90;;;;;;4977296;28;20081;-81
2023/07/07 06:41:12;;;;;;;7.95;2.30;;;18.40;99.90;;;;;;4977723;28;20409;-80
2023/07/07 06:43:38;;;;;;;6.60;2.20;;;18.60;99.90;;;;;;4978350;28;20050;-80
2023/07/07 06:46:05;;;;;;;11.68;2.53;;;18.70;99.90;;;;;;4977490;28;20054;-81
2023/07/07 06:48:32;;;;;;;7.60;2.80;;;18.80;99.90;;;;;;4977857;28;20046;-77
2023/07/07 06:50:59;;;;;;;11.35;2.75;;;18.90;99.90;;;;;;4976776;28;20109;-81
2023/07/07 06:53:26;;;;;;;9.10;2.85;;;18.90;99.90;;;;;;4977952;28;20057;-81
2023/07/07 06:55:52;;;;;;;8.90;2.83;;;18.90;99.90;;;;;;4978099;28;20046;-80
2023/07/07 06:58:19;;;;;;;6.32;2.40;;;19.00;99.90;;;;;;4977113;28;20050;-80
2023/07/07 07:00:46;;;;;;;8.50;2.40;;;19.10;99.90;;;;;;4977456;28;20351;-80
2023/07/07 07:03:12;;;;;;;11.15;2.67;;;19.20;99.90;;;;;;4977800;28;20054;-80
2023/07/07 07:05:42;;;;;;;8.38;2.60;;;19.30;99.90;;;;;;4964635;28;20134;-79
2023/07/07 07:08:08;;;;;;;8.70;2.85;;;19.40;99.90;;;;;;4997043;28;20047;-80
2023/07/07 07:10:35;;;;;;;6.47;2.58;;;19.60;99.90;;;;;;4979223;28;20065;-80
2023/07/07 07:13:02;;;;;;;9.27;3.10;;;19.70;99.90;;;;;;4979787;28;20070;-81
2023/07/07 07:15:30;;;;;;;6.90;2.70;;;19.90;99.90;;;;;;4996929;28;20046;-81
2023/07/07 07:17:56;;;;;;;7.53;2.72;;;20.00;99.90;;;;;;4996162;28;20073;-79
2023/07/07 07:20:23;;;;;;;14.30;3.00;;;20.20;99.90;;;;;;4996362;28;20050;-79
2023/07/07 07:22:50;;;;;;;12.40;3.22;;;20.40;99.90;;;;;;4996782;28;20079;-81
2023/07/07 07:25:18;;;;;;;10.35;2.60;;;20.50;99.90;;;;;;4995762;28;20045;-80
2023/07/07 07:27:45;;;;;;;6.78;2.35;;;20.60;99.90;;;;;;4996638;28;20100;-80
2023/07/07 07:30:14;;;;;;;8.82;2.58;;;20.70;99.90;;;;;;4996417;28;20046;-79
2023/07/07 07:32:40;;;;;;;7.28;2.45;;;20.90;99.90;;;;;;4978628;28;20389;-79
2023/07/07 07:35:10;;;;;;;9.18;3.10;;;21.00;99.90;;;;;;4996404;28;20068;-77
2023/07/07 07:37:36;;;;;;;8.50;2.67;;;21.00;99.90;;;;;;4996687;28;20066;-80
2023/07/07 07:40:03;;;;;;;6.40;2.58;;;21.10;99.90;;;;;;4995776;28;20042;-80
2023/07/07 07:42:30;;;;;;;8.35;3.00;;;21.30;99.90;;;;;;4996871;28;20072;-81
2023/07/07 07:44:57;;;;;;;10.23;2.72;;;21.30;99.90;;;;;;4995659;28;20054;-79
2023/07/07 07:47:23;;;;;;;8.38;2.30;;;21.50;99.90;;;;;;4996256;28;20497;-80
2023/07/07 07:49:50;;;;;;;7.53;2.92;;;21.50;99.90;;;;;;4978813;28;20034;-81
2023/07/07 07:52:18;;;;;;;8.20;2.58;;;21.60;99.90;;;;;;4981671;28;20046;-80
2023/07/07 07:54:45;;;;;;;6.63;2.70;;;21.70;99.90;;;;;;4976791;28;20145;-81
2023/07/07 07:57:12;;;;;;;7.97;2.75;;;21.90;99.90;;;;;;4996540;28;20449;-81
2023/07/07 07:59:38;;;;;;;12.07;2.90;;;22.10;99.90;;;;;;4988108;28;20116;-81
2023/07/07 08:02:05;;;;;;;6.85;2.40;;;22.30;99.90;;;;;;4988828;28;20043;-80
2023/07/07 08:04:32;;;;;;;10.02;3.38;;;22.40;99.90;;;;;;4975715;28;20373;-78
2023/07/07 08:06:59;;;;;;;9.07;2.67;;;22.50;99.90;;;;;;5007832;28;20053;-79
2023/07/07 08:09:25;;;;;;;9.27;2.85;;;22.60;99.90;;;;;;5015755;28;20427;-79
2023/07/07 08:11:52;;;;;;;6.93;2.97;;;22.70;99.90;;;;;;5014465;28;20435;-78
2023/07/07 08:14:19;;;;;;;8.48;2.65;;;22.90;99.90;;;;;;5015657;28;20046;-78
2023/07/07 08:16:47;;;;;;;10.07;2.50;;;23.10;99.90;;;;;;5015421;28;20060;-80
2023/07/07 08:19:14;;;;;;;6.35;2.45;;;23.20;99.90;;;;;;5014428;28;20052;-77
2023/07/07 08:21:45;;;;;;;8.75;2.72;;;23.30;99.90;;;;;;4999014;28;20049;-80
2023/07/07 08:24:12;;;;;;;9.20;3.03;;;23.30;99.90;;;;;;4997780;28;20137;-81
2023/07/07 08:26:40;;;;;;;7.32;2.63;;;23.30;99.90;;;;;;4998056;28;20465;-85
2023/07/07 08:29:07;;;;;;;8.32;2.42;;;23.40;99.90;;;;;;4994524;28;20130;-82
2023/07/07 08:31:34;;;;;;;7.53;2.63;;;23.60;99.90;;;;;;4994372;28;20380;-79
2023/07/07 08:34:01;;;;;;;8.77;3.13;;;23.90;99.90;;;;;;4994438;28;20054;-85
2023/07/07 08:38:58;;;;;;;9.82;3.08;;;24.30;99.90;;;;;;4974314;28;20054;-84
2023/07/07 08:41:24;;;;;;;7.55;2.72;;;24.30;99.90;;;;;;4986421;28;20413;-82
2023/07/07 08:43:51;;;;;;;13.02;2.90;;;24.10;99.90;;;;;;4993970;28;20061;-85
2023/07/07 08:46:19;;;;;;;11.43;2.78;;;24.10;99.90;;;;;;4994395;28;20105;-85
2023/07/07 08:48:46;;;;;;;10.20;3.00;;;24.40;99.90;;;;;;4975708;28;20043;-85
2023/07/07 08:51:13;;;;;;;10.50;2.92;;;24.70;99.90;;;;;;4993189;28;20070;-82
2023/07/07 08:53:40;;;;;;;10.35;3.10;;;25.00;99.90;;;;;;4994194;28;20481;-83
2023/07/07 08:56:07;;;;;;;7.60;3.17;;;25.20;99.90;;;;;;4994023;28;20093;-85
2023/07/07 08:58:34;;;;;;;7.63;2.90;;;25.30;99.90;;;;;;4993616;28;20378;-82
2023/07/07 09:01:01;;;;;;;7.68;2.83;;;25.30;99.90;;;;;;4994013;28;20057;-84
2023/07/07 09:03:28;;;;;;;8.65;3.50;;;25.50;99.90;;;;;;4994536;28;20097;-82
2023/07/07 09:05:56;;;;;;;9.48;3.83;;;25.80;99.90;;;;;;4993869;28;20042;-83
2023/07/07 09:08:23;;;;;;;10.88;3.78;;;25.90;99.90;;;;;;4993582;28;20042;-85
2023/07/07 09:10:53;;;;;;;10.27;3.78;;;25.70;99.90;;;;;;4993336;28;20062;-85
2023/07/07 09:13:20;;;;;;;10.27;3.85;;;25.90;99.90;;;;;;4970181;28;20047;-86
2023/07/07 09:18:33;;;;;;;8.20;3.45;;;26.30;99.90;;;;;;4973018;28;20043;-86
2023/07/07 09:21:00;;;;;;;9.35;3.85;;;26.50;99.90;;;;;;4958945;28;20051;-88
2023/07/07 09:23:27;;;;;;;7.90;3.50;;;26.60;99.90;;;;;;4973842;28;20050;-85
2023/07/07 09:28:39;;;;;;;9.20;3.50;;;27.20;99.90;;;;;;4994811;28;20358;-87
2023/07/07 09:31:06;;;;;;;10.43;3.47;;;27.10;99.90;;;;;;4993619;28;20085;-82
2023/07/07 09:33:33;;;;;;;10.48;3.45;;;27.10;99.90;;;;;;4979430;28;20050;-83
2023/07/07 09:36:00;;;;;;;8.02;3.25;;;26.90;99.90;;;;;;4994963;28;20073;-85
2023/07/07 09:38:26;;;;;;;8.02;3.08;;;27.20;99.90;;;;;;4988680;28;20109;-86
2023/07/07 09:40:53;;;;;;;7.25;3.15;;;27.30;99.90;;;;;;4962108;28;20079;-85
2023/07/07 09:43:20;;;;;;;7.15;3.17;;;27.60;99.90;;;;;;4961753;28;20109;-84
2023/07/07 09:45:49;;;;;;;11.25;3.30;;;28.00;99.90;;;;;;4960915;28;20066;-83
2023/07/07 09:48:16;;;;;;;8.82;3.10;;;28.60;99.90;;;;;;4978908;28;20046;-84
2023/07/07 09:50:42;;;;;;;10.20;3.50;;;28.30;99.90;;;;;;4961816;28;20039;-85
2023/07/07 09:53:09;;;;;;;8.45;3.40;;;28.30;99.90;;;;;;4961692;28;20058;-89
2023/07/07 09:58:36;;;;;;;14.88;3.70;;;28.00;99.90;;;;;;4961283;28;20047;-90
2023/07/07 10:01:03;;;;;;;10.15;3.30;;;28.30;99.90;;;;;;4962903;28;20058;-89
2023/07/07 10:03:30;;;;;;;8.65;3.47;;;28.40;99.90;;;;;;4981312;28;20468;-85
2023/07/07 10:05:57;;;;;;;10.82;3.15;;;28.80;99.90;;;;;;4990294;28;20058;-87
2023/07/07 10:08:26;;;;;;;8.15;2.80;;;29.40;99.90;;;;;;4998052;28;20058;-87
2023/07/07 10:10:52;;;;;;;9.25;3.17;;;29.40;99.70;;;;;;4981605;28;20054;-81
2023/07/07 10:13:21;;;;;;;7.38;2.92;;;29.40;99.90;;;;;;5012661;28;20369;-86
2023/07/07 10:18:33;;;;;;;6.90;3.00;;;29.70;98.70;;;;;;5012582;28;20046;-85
2023/07/07 10:21:19;;;;;;;12.18;3.30;;;29.40;97.60;;;;;;4996932;28;20050;-83
2023/07/07 10:23:45;;;;;;;6.68;2.90;;;29.40;97.60;;;;;;5013064;28;20038;-85
2023/07/07 10:26:14;;;;;;;7.70;3.10;;;29.70;97.30;;;;;;4995789;28;20137;-83
2023/07/07 10:28:41;;;;;;;10.13;3.58;;;30.00;96.90;;;;;;4997525;28;20450;-83
2023/07/07 10:31:08;;;;;;;11.65;3.30;;;30.50;95.40;;;;;;4996588;28;20108;-85
2023/07/07 10:33:35;;;;;;;8.38;2.90;;;31.00;95.40;;;;;;4997292;28;20050;-86
2023/07/07 10:36:03;;;;;;;7.93;3.38;;;31.70;95.00;;;;;;4997396;28;20073;-84
2023/07/07 10:38:33;;;;;;;10.15;3.00;;;32.20;94.00;;;;;;5009123;28;20081;-85
2023/07/07 10:41:07;;;;;;;7.10;3.08;;;32.10;91.30;;;;;;4977350;28;20074;-83
2023/07/07 10:43:34;;;;;;;11.35;3.30;;;31.80;91.90;;;;;;4977704;28;20058;-82
2023/07/07 10:46:02;;;;;;;9.95;3.33;;;32.00;91.40;;;;;;4975862;28;20046;-81
2023/07/07 10:48:28;;;;;;;10.07;3.60;;;32.10;92.80;;;;;;4978038;28;20126;-77
2023/07/07 10:50:55;;;;;;;10.00;3.65;;;31.70;91.70;;;;;;4977291;28;20043;-80
2023/07/07 10:53:23;;;;;;;9.20;3.50;;;31.00;91.90;;;;;;4977349;28;20047;-77
2023/07/07 10:55:50;;;;;;;10.07;3.50;;;30.80;91.80;;;;;;4978049;28;20050;-80
2023/07/07 10:58:17;;;;;;;10.07;3.22;;;30.80;91.90;;;;;;4977144;28;20070;-80
2023/07/07 11:00:43;;;;;;;10.40;3.45;;;30.70;91.90;;;;;;4977176;28;20462;-81
2023/07/07 11:03:10;;;;;;;8.50;3.42;;;30.70;92.20;;;;;;4977527;28;20437;-79
2023/07/07 11:05:57;;;;;;;6.82;3.28;;;30.90;93.20;;;;;;4983783;28;20046;-81
2023/07/07 11:08:30;;;;;;;9.27;3.47;;;31.20;91.50;;;;;;4996304;28;20144;-80
2023/07/07 11:10:58;;;;;;;11.18;3.80;;;31.40;92.70;;;;;;4997110;28;20081;-80
2023/07/07 11:13:25;;;;;;;8.35;3.17;;;31.40;90.70;;;;;;4979519;28;20039;-79
2023/07/07 11:18:38;;;;;;;8.40;3.63;;;31.60;89.20;;;;;;4978179;28;20065;-81
2023/07/07 11:21:04;;;;;;;7.22;3.30;;;32.10;90.50;;;;;;4988543;28;20046;-82
2023/07/07 11:23:31;;;;;;;7.72;3.67;;;32.30;89.10;;;;;;4978160;28;20050;-82
2023/07/07 11:25:58;;;;;;;8.88;4.07;;;32.40;88.60;;;;;;4995588;28;20066;-82
2023/07/07 11:28:25;;;;;;;7.22;3.55;;;32.50;85.30;;;;;;4996598;28;20038;-82
2023/07/07 11:30:51;;;;;;;8.10;3.70;;;32.80;84.70;;;;;;4990529;28;20097;-84
2023/07/07 11:33:18;;;;;;;6.93;3.45;;;32.90;82.60;;;;;;4963887;28;20034;-87
2023/07/07 11:35:47;;;;;;;8.40;3.75;;;33.20;82.90;;;;;;4995658;28;20061;-83
2023/07/07 11:38:14;;;;;;;6.97;3.45;;;33.30;85.60;;;;;;4959136;28;20043;-80
2023/07/07 11:40:40;;;;;;;7.88;3.50;;;33.20;80.60;;;;;;4959715;28;20101;-87
2023/07/07 11:43:07;;;;;;;10.35;3.47;;;33.30;80.90;;;;;;4960153;28;20047;-83
2023/07/07 11:48:20;;;;;;;8.88;3.80;;;33.80;79.70;;;;;;4977205;28;20047;-85
2023/07/07 11:50:46;;;;;;;7.15;3.65;;;33.90;80.30;;;;;;4977327;28;20178;-85
2023/07/07 11:53:13;;;;;;;10.88;4.10;;;33.60;79.70;;;;;;4959870;28;20362;-85
2023/07/07 11:55:41;;;;;;;8.20;3.85;;;33.80;78.60;;;;;;4976186;28;20042;-82
2023/07/07 11:58:08;;;;;;;8.98;4.10;;;33.90;78.90;;;;;;4959003;28;20047;-84
2023/07/07 12:00:35;;;;;;;6.97;3.90;;;34.20;78.00;;;;;;4976578;28;20429;-86
2023/07/07 12:03:01;;;;;;;9.07;3.85;;;34.50;76.40;;;;;;4975785;28;20047;-84
2023/07/07 12:05:29;;;;;;;8.10;4.15;;;34.50;75.80;;;;;;4979300;28;20112;-87
2023/07/07 12:07:56;;;;;;;8.95;4.28;;;34.30;74.30;;;;;;4979521;28;20383;-83
2023/07/07 12:10:22;;;;;;;7.78;4.10;;;34.50;74.00;;;;;;4995615;28;20046;-84
2023/07/07 12:12:49;;;;;;;7.47;3.90;;;34.80;72.60;;;;;;4995636;28;20129;-83
2023/07/07 12:15:16;;;;;;;8.57;4.45;;;34.60;72.20;;;;;;4976671;28;20128;-84
2023/07/07 12:17:43;;;;;;;10.05;4.13;;;34.90;72.40;;;;;;4972501;28;20142;-81
2023/07/07 12:20:09;;;;;;;8.88;4.07;;;34.50;71.80;;;;;;4972234;28;20464;-80
2023/07/07 12:22:37;;;;;;;7.10;3.83;;;34.40;71.50;;;;;;4972690;28;20059;-83
2023/07/07 12:25:04;;;;;;;8.48;3.80;;;34.50;70.50;;;;;;4983039;28;20057;-89
2023/07/07 12:27:31;;;;;;;7.45;3.90;;;34.50;70.70;;;;;;4993983;28;20368;-84
2023/07/07 12:29:58;;;;;;;7.32;3.85;;;34.90;74.40;;;;;;4992441;28;20056;-86
2023/07/07 12:32:24;;;;;;;8.25;4.00;;;35.20;70.00;;;;;;4976536;28;20061;-85
2023/07/07 12:34:51;;;;;;;9.02;4.60;;;35.40;71.60;;;;;;4977040;28;20042;-86
2023/07/07 12:37:18;;;;;;;7.53;4.10;;;35.30;68.20;;;;;;4993471;28;20050;-87
2023/07/07 12:39:45;;;;;;;8.30;4.15;;;35.40;71.00;;;;;;4984818;28;20073;-80
2023/07/07 12:42:11;;;;;;;11.35;4.20;;;34.30;67.20;;;;;;4969428;28;20441;-81
2023/07/07 12:44:38;;;;;;;8.57;4.50;;;34.20;70.30;;;;;;4982312;28;20776;-80
2023/07/07 12:47:05;;;;;;;8.82;4.82;;;34.60;71.40;;;;;;4982922;28;20069;-80
2023/07/07 12:49:36;;;;;;;15.43;5.10;;;35.10;66.70;;;;;;4971974;28;20097;-83
2023/07/07 12:52:03;;;;;;;8.93;4.30;;;35.40;67.10;;;;;;4982237;28;20057;-81
2023/07/07 12:54:30;;;;;;;8.40;4.55;;;35.60;69.30;;;;;;4972517;28;20038;-84
2023/07/07 12:56:58;;;;;;;8.02;4.25;;;35.40;66.60;;;;;;4981491;28;20050;-84
2023/07/07 12:59:24;;;;;;;8.27;4.78;;;35.20;65.70;;;;;;4981980;28;20042;-84
2023/07/07 13:01:51;;;;;;;7.78;4.30;;;35.10;65.40;;;;;;4972598;28;20509;-82
2023/07/07 13:04:17;;;;;;;10.98;4.57;;;35.20;64.80;;;;;;4981781;28;20499;-83
2023/07/07 13:06:44;;;;;;;7.95;4.07;;;35.70;65.70;;;;;;4981348;28;20148;-81
2023/07/07 13:09:14;;;;;;;9.77;4.50;;;35.80;65.40;;;;;;4988632;28;20070;-82
2023/07/07 13:11:40;;;;;;;8.40;4.28;;;35.80;65.10;;;;;;4993261;28;20129;-83